sensor_id;sensor_type;location;lat;lon;timestamp;temperature;humidity
35497;DHT22;21609;49.298;6.844;2023-04-19T00:00:29;17.10;52.80
35497;DHT22;21609;49.298;6.844;2023-04-19T00:02:54;17.10;52.80
35497;DHT22;21609;49.298;6.844;2023-04-19T00:05:20;17.10;52.80
35497;DHT22;21609;49.298;6.844;2023-04-19T00:07:48;17.10;53.00
35497;DHT22;21609;49.298;6.844;2023-04-19T00:10:13;17.10;52.80
35497;DHT22;21609;49.298;6.844;2023-04-19T00:12:39;17.10;52.90
35497;DHT22;21609;49.298;6.844;2023-04-19T00:15:05;17.10;52.80
35497;DHT22;21609;49.298;6.844;2023-04-19T00:17:31;17.10;52.90
35497;DHT22;21609;49.298;6.844;2023-04-19T00:19:57;17.10;53.30
35497;DHT22;21609;49.298;6.844;2023-04-19T00:22:23;17.10;53.20
35497;DHT22;21609;49.298;6.844;2023-04-19T00:24:48;17.10;52.80
35497;DHT22;21609;49.298;6.844;2023-04-19T00:27:14;17.10;52.80
35497;DHT22;21609;49.298;6.844;2023-04-19T00:29:39;17.00;53.00
35497;DHT22;21609;49.298;6.844;2023-04-19T00:32:05;17.10;53.10
35497;DHT22;21609;49.298;6.844;2023-04-19T00:34:30;17.10;53.00
35497;DHT22;21609;49.298;6.844;2023-04-19T00:36:56;17.00;52.80
35497;DHT22;21609;49.298;6.844;2023-04-19T00:39:22;17.10;53.00
35497;DHT22;21609;49.298;6.844;2023-04-19T00:41:48;17.00;52.90
35497;DHT22;21609;49.298;6.844;2023-04-19T00:44:13;17.00;53.00
35497;DHT22;21609;49.298;6.844;2023-04-19T00:46:39;17.10;52.80
35497;DHT22;21609;49.298;6.844;2023-04-19T00:49:05;17.00;53.10
35497;DHT22;21609;49.298;6.844;2023-04-19T00:51:31;17.00;52.90
35497;DHT22;21609;49.298;6.844;2023-04-19T00:53:57;17.00;52.90
35497;DHT22;21609;49.298;6.844;2023-04-19T00:56:23;17.00;52.80
35497;DHT22;21609;49.298;6.844;2023-04-19T00:58:51;17.00;52.80
35497;DHT22;21609;49.298;6.844;2023-04-19T01:01:17;17.00;52.90
35497;DHT22;21609;49.298;6.844;2023-04-19T01:03:45;17.00;52.90
35497;DHT22;21609;49.298;6.844;2023-04-19T01:06:11;17.00;52.90
35497;DHT22;21609;49.298;6.844;2023-04-19T01:08:37;17.00;52.80
35497;DHT22;21609;49.298;6.844;2023-04-19T01:11:04;17.00;52.90
35497;DHT22;21609;49.298;6.844;2023-04-19T01:13:30;17.00;52.90
35497;DHT22;21609;49.298;6.844;2023-04-19T01:15:56;17.00;52.80
35497;DHT22;21609;49.298;6.844;2023-04-19T01:18:22;17.00;53.00
35497;DHT22;21609;49.298;6.844;2023-04-19T01:20:57;17.00;52.90
35497;DHT22;21609;49.298;6.844;2023-04-19T01:23:23;17.00;53.30
35497;DHT22;21609;49.298;6.844;2023-04-19T01:25:48;17.00;53.10
35497;DHT22;21609;49.298;6.844;2023-04-19T01:28:14;17.00;52.90
35497;DHT22;21609;49.298;6.844;2023-04-19T01:30:40;17.00;53.00
35497;DHT22;21609;49.298;6.844;2023-04-19T01:33:06;17.00;52.90
35497;DHT22;21609;49.298;6.844;2023-04-19T01:35:31;16.90;52.90
35497;DHT22;21609;49.298;6.844;2023-04-19T01:37:57;17.00;53.00
35497;DHT22;21609;49.298;6.844;2023-04-19T01:40:23;17.00;52.90
35497;DHT22;21609;49.298;6.844;2023-04-19T01:42:49;16.90;53.00
35497;DHT22;21609;49.298;6.844;2023-04-19T01:45:14;16.90;53.10
35497;DHT22;21609;49.298;6.844;2023-04-19T01:47:40;16.90;52.90
35497;DHT22;21609;49.298;6.844;2023-04-19T01:50:06;16.90;52.90
35497;DHT22;21609;49.298;6.844;2023-04-19T01:52:32;16.90;53.00
35497;DHT22;21609;49.298;6.844;2023-04-19T01:54:57;16.90;53.00
35497;DHT22;21609;49.298;6.844;2023-04-19T01:57:23;16.90;53.10
35497;DHT22;21609;49.298;6.844;2023-04-19T01:59:48;16.90;53.00
35497;DHT22;21609;49.298;6.844;2023-04-19T02:02:14;16.90;53.00
35497;DHT22;21609;49.298;6.844;2023-04-19T02:04:40;16.90;52.90
35497;DHT22;21609;49.298;6.844;2023-04-19T02:07:05;16.90;52.80
35497;DHT22;21609;49.298;6.844;2023-04-19T02:09:34;16.90;52.90
35497;DHT22;21609;49.298;6.844;2023-04-19T02:12:00;16.90;52.90
35497;DHT22;21609;49.298;6.844;2023-04-19T02:14:26;16.90;52.90
35497;DHT22;21609;49.298;6.844;2023-04-19T02:16:52;16.90;53.30
35497;DHT22;21609;49.298;6.844;2023-04-19T02:19:18;16.90;53.30
35497;DHT22;21609;49.298;6.844;2023-04-19T02:21:44;16.90;52.90
35497;DHT22;21609;49.298;6.844;2023-04-19T02:24:09;16.90;52.80
35497;DHT22;21609;49.298;6.844;2023-04-19T02:26:35;16.90;53.00
35497;DHT22;21609;49.298;6.844;2023-04-19T02:29:00;16.90;53.00
35497;DHT22;21609;49.298;6.844;2023-04-19T02:31:26;16.90;52.90
35497;DHT22;21609;49.298;6.844;2023-04-19T02:33:51;16.90;52.80
35497;DHT22;21609;49.298;6.844;2023-04-19T02:36:17;16.90;52.90
35497;DHT22;21609;49.298;6.844;2023-04-19T02:38:42;16.90;53.00
35497;DHT22;21609;49.298;6.844;2023-04-19T02:41:08;16.90;53.10
35497;DHT22;21609;49.298;6.844;2023-04-19T02:43:33;16.90;53.30
35497;DHT22;21609;49.298;6.844;2023-04-19T02:46:00;16.90;53.10
35497;DHT22;21609;49.298;6.844;2023-04-19T02:48:25;16.90;53.30
35497;DHT22;21609;49.298;6.844;2023-04-19T02:50:51;16.90;52.90
35497;DHT22;21609;49.298;6.844;2023-04-19T02:53:16;16.80;52.90
35497;DHT22;21609;49.298;6.844;2023-04-19T02:55:42;16.80;53.20
35497;DHT22;21609;49.298;6.844;2023-04-19T02:58:07;16.90;53.40
35497;DHT22;21609;49.298;6.844;2023-04-19T03:00:33;16.80;53.00
35497;DHT22;21609;49.298;6.844;2023-04-19T03:02:58;16.80;52.90
35497;DHT22;21609;49.298;6.844;2023-04-19T03:05:24;16.90;53.00
35497;DHT22;21609;49.298;6.844;2023-04-19T03:07:50;16.90;52.90
35497;DHT22;21609;49.298;6.844;2023-04-19T03:10:15;16.90;53.20
35497;DHT22;21609;49.298;6.844;2023-04-19T03:12:41;16.90;53.00
35497;DHT22;21609;49.298;6.844;2023-04-19T03:15:07;16.90;53.10
35497;DHT22;21609;49.298;6.844;2023-04-19T03:17:33;16.80;52.90
35497;DHT22;21609;49.298;6.844;2023-04-19T03:19:58;16.80;53.00
35497;DHT22;21609;49.298;6.844;2023-04-19T03:22:24;16.90;52.90
35497;DHT22;21609;49.298;6.844;2023-04-19T03:24:49;16.90;53.00
35497;DHT22;21609;49.298;6.844;2023-04-19T03:27:15;16.80;52.90
35497;DHT22;21609;49.298;6.844;2023-04-19T03:29:40;16.80;53.00
35497;DHT22;21609;49.298;6.844;2023-04-19T03:32:06;16.80;53.30
35497;DHT22;21609;49.298;6.844;2023-04-19T03:34:31;16.80;53.00
35497;DHT22;21609;49.298;6.844;2023-04-19T03:36:57;16.80;53.30
35497;DHT22;21609;49.298;6.844;2023-04-19T03:39:23;16.80;53.00
35497;DHT22;21609;49.298;6.844;2023-04-19T03:41:48;16.80;53.10
35497;DHT22;21609;49.298;6.844;2023-04-19T03:44:15;16.80;53.30
35497;DHT22;21609;49.298;6.844;2023-04-19T03:46:40;16.80;52.90
35497;DHT22;21609;49.298;6.844;2023-04-19T03:49:06;16.80;53.00
35497;DHT22;21609;49.298;6.844;2023-04-19T03:51:31;16.80;52.90
35497;DHT22;21609;49.298;6.844;2023-04-19T03:53:57;16.80;53.20
35497;DHT22;21609;49.298;6.844;2023-04-19T03:56:23;16.80;53.10
35497;DHT22;21609;49.298;6.844;2023-04-19T03:58:51;16.80;53.20
35497;DHT22;21609;49.298;6.844;2023-04-19T04:01:20;16.80;53.00
35497;DHT22;21609;49.298;6.844;2023-04-19T04:03:46;16.70;53.00
35497;DHT22;21609;49.298;6.844;2023-04-19T04:06:12;16.80;53.00
35497;DHT22;21609;49.298;6.844;2023-04-19T04:08:37;16.80;53.00
35497;DHT22;21609;49.298;6.844;2023-04-19T04:11:03;16.80;52.90
35497;DHT22;21609;49.298;6.844;2023-04-19T04:13:29;16.80;52.90
35497;DHT22;21609;49.298;6.844;2023-04-19T04:15:54;16.80;52.90
35497;DHT22;21609;49.298;6.844;2023-04-19T04:18:20;16.80;52.90
35497;DHT22;21609;49.298;6.844;2023-04-19T04:20:45;16.70;53.10
35497;DHT22;21609;49.298;6.844;2023-04-19T04:23:11;16.80;53.00
35497;DHT22;21609;49.298;6.844;2023-04-19T04:25:36;16.70;53.60
35497;DHT22;21609;49.298;6.844;2023-04-19T04:28:04;16.70;53.10
35497;DHT22;21609;49.298;6.844;2023-04-19T04:30:29;16.70;53.20
35497;DHT22;21609;49.298;6.844;2023-04-19T04:32:55;16.70;53.10
35497;DHT22;21609;49.298;6.844;2023-04-19T04:35:22;16.70;52.90
35497;DHT22;21609;49.298;6.844;2023-04-19T04:37:48;16.70;53.00
35497;DHT22;21609;49.298;6.844;2023-04-19T04:40:14;16.70;52.90
35497;DHT22;21609;49.298;6.844;2023-04-19T04:42:40;16.70;53.40
35497;DHT22;21609;49.298;6.844;2023-04-19T04:45:07;16.70;53.50
35497;DHT22;21609;49.298;6.844;2023-04-19T04:47:35;16.70;53.10
35497;DHT22;21609;49.298;6.844;2023-04-19T04:50:01;16.70;53.00
35497;DHT22;21609;49.298;6.844;2023-04-19T04:52:27;16.70;53.30
35497;DHT22;21609;49.298;6.844;2023-04-19T04:54:52;16.70;53.10
35497;DHT22;21609;49.298;6.844;2023-04-19T04:57:18;16.70;53.10
35497;DHT22;21609;49.298;6.844;2023-04-19T04:59:43;16.70;53.00
35497;DHT22;21609;49.298;6.844;2023-04-19T05:02:10;16.70;53.00
35497;DHT22;21609;49.298;6.844;2023-04-19T05:04:36;16.70;53.10
35497;DHT22;21609;49.298;6.844;2023-04-19T05:07:01;16.70;53.20
35497;DHT22;21609;49.298;6.844;2023-04-19T05:09:27;16.70;53.40
35497;DHT22;21609;49.298;6.844;2023-04-19T05:11:52;16.70;53.60
35497;DHT22;21609;49.298;6.844;2023-04-19T05:14:18;16.70;53.70
35497;DHT22;21609;49.298;6.844;2023-04-19T05:16:44;16.70;53.20
35497;DHT22;21609;49.298;6.844;2023-04-19T05:19:09;16.70;53.20
35497;DHT22;21609;49.298;6.844;2023-04-19T05:21:35;16.70;53.20
35497;DHT22;21609;49.298;6.844;2023-04-19T05:24:01;16.70;53.20
35497;DHT22;21609;49.298;6.844;2023-04-19T05:26:27;16.70;53.40
35497;DHT22;21609;49.298;6.844;2023-04-19T05:28:52;16.70;53.30
35497;DHT22;21609;49.298;6.844;2023-04-19T05:31:18;16.70;53.10
35497;DHT22;21609;49.298;6.844;2023-04-19T05:33:45;16.70;53.20
35497;DHT22;21609;49.298;6.844;2023-04-19T05:36:10;16.70;53.30
35497;DHT22;21609;49.298;6.844;2023-04-19T05:38:36;16.70;53.90
35497;DHT22;21609;49.298;6.844;2023-04-19T05:41:02;16.70;54.00
35497;DHT22;21609;49.298;6.844;2023-04-19T05:43:28;16.70;53.80
35497;DHT22;21609;49.298;6.844;2023-04-19T05:45:54;16.70;53.50
35497;DHT22;21609;49.298;6.844;2023-04-19T05:48:19;16.60;53.40
35497;DHT22;21609;49.298;6.844;2023-04-19T05:50:45;16.60;53.70
35497;DHT22;21609;49.298;6.844;2023-04-19T05:53:10;16.70;54.00
35497;DHT22;21609;49.298;6.844;2023-04-19T05:55:36;16.70;54.20
35497;DHT22;21609;49.298;6.844;2023-04-19T05:58:02;16.70;53.50
35497;DHT22;21609;49.298;6.844;2023-04-19T06:00:27;16.60;54.20
35497;DHT22;21609;49.298;6.844;2023-04-19T06:02:53;16.70;54.60
35497;DHT22;21609;49.298;6.844;2023-04-19T06:05:18;16.60;53.80
35497;DHT22;21609;49.298;6.844;2023-04-19T06:07:44;16.70;53.70
35497;DHT22;21609;49.298;6.844;2023-04-19T06:10:10;16.60;53.70
35497;DHT22;21609;49.298;6.844;2023-04-19T06:12:35;16.60;53.90
35497;DHT22;21609;49.298;6.844;2023-04-19T06:15:01;16.60;53.60
35497;DHT22;21609;49.298;6.844;2023-04-19T06:17:26;16.60;53.80
35497;DHT22;21609;49.298;6.844;2023-04-19T06:19:53;16.60;53.80
35497;DHT22;21609;49.298;6.844;2023-04-19T06:22:19;16.60;53.70
35497;DHT22;21609;49.298;6.844;2023-04-19T06:24:46;16.60;53.50
35497;DHT22;21609;49.298;6.844;2023-04-19T06:27:12;16.60;53.60
35497;DHT22;21609;49.298;6.844;2023-04-19T06:29:37;16.60;54.30
35497;DHT22;21609;49.298;6.844;2023-04-19T06:32:03;16.60;53.90
35497;DHT22;21609;49.298;6.844;2023-04-19T06:34:28;16.60;53.60
35497;DHT22;21609;49.298;6.844;2023-04-19T06:36:54;16.60;53.90
35497;DHT22;21609;49.298;6.844;2023-04-19T06:39:19;16.60;53.90
35497;DHT22;21609;49.298;6.844;2023-04-19T06:41:45;16.60;53.70
35497;DHT22;21609;49.298;6.844;2023-04-19T06:44:10;16.60;53.90
35497;DHT22;21609;49.298;6.844;2023-04-19T06:46:37;16.60;53.50
35497;DHT22;21609;49.298;6.844;2023-04-19T06:49:03;16.70;53.70
35497;DHT22;21609;49.298;6.844;2023-04-19T06:51:28;16.70;54.00
35497;DHT22;21609;49.298;6.844;2023-04-19T06:53:54;16.70;54.10
35497;DHT22;21609;49.298;6.844;2023-04-19T06:56:41;16.70;54.10
35497;DHT22;21609;49.298;6.844;2023-04-19T06:59:10;16.70;54.10
35497;DHT22;21609;49.298;6.844;2023-04-19T07:01:36;16.70;54.20
35497;DHT22;21609;49.298;6.844;2023-04-19T07:04:02;16.70;54.20
35497;DHT22;21609;49.298;6.844;2023-04-19T07:06:27;16.70;54.20
35497;DHT22;21609;49.298;6.844;2023-04-19T07:08:54;16.80;54.20
35497;DHT22;21609;49.298;6.844;2023-04-19T07:11:19;16.80;54.30
35497;DHT22;21609;49.298;6.844;2023-04-19T07:13:46;16.80;54.50
35497;DHT22;21609;49.298;6.844;2023-04-19T07:16:11;16.80;54.60
35497;DHT22;21609;49.298;6.844;2023-04-19T07:18:38;16.80;54.60
35497;DHT22;21609;49.298;6.844;2023-04-19T07:21:04;16.70;54.40
35497;DHT22;21609;49.298;6.844;2023-04-19T07:23:30;16.80;54.80
35497;DHT22;21609;49.298;6.844;2023-04-19T07:25:56;16.80;54.40
35497;DHT22;21609;49.298;6.844;2023-04-19T07:28:21;16.80;54.50
35497;DHT22;21609;49.298;6.844;2023-04-19T07:30:47;16.80;54.50
35497;DHT22;21609;49.298;6.844;2023-04-19T07:33:12;16.80;54.60
35497;DHT22;21609;49.298;6.844;2023-04-19T07:35:38;16.80;54.40
35497;DHT22;21609;49.298;6.844;2023-04-19T07:38:04;16.80;54.50
35497;DHT22;21609;49.298;6.844;2023-04-19T07:40:29;16.80;55.10
35497;DHT22;21609;49.298;6.844;2023-04-19T07:42:55;16.80;54.40
35497;DHT22;21609;49.298;6.844;2023-04-19T07:45:21;16.80;54.70
35497;DHT22;21609;49.298;6.844;2023-04-19T07:47:46;16.80;54.60
35497;DHT22;21609;49.298;6.844;2023-04-19T07:50:12;16.80;54.70
35497;DHT22;21609;49.298;6.844;2023-04-19T07:52:38;16.70;54.60
35497;DHT22;21609;49.298;6.844;2023-04-19T07:55:04;16.70;54.40
35497;DHT22;21609;49.298;6.844;2023-04-19T07:57:30;16.80;54.60
35497;DHT22;21609;49.298;6.844;2023-04-19T07:59:56;16.80;54.30
35497;DHT22;21609;49.298;6.844;2023-04-19T08:02:25;16.70;54.50
35497;DHT22;21609;49.298;6.844;2023-04-19T08:04:52;16.80;54.80
35497;DHT22;21609;49.298;6.844;2023-04-19T08:07:18;16.70;54.50
35497;DHT22;21609;49.298;6.844;2023-04-19T08:09:43;16.80;54.40
35497;DHT22;21609;49.298;6.844;2023-04-19T08:12:09;16.80;54.60
35497;DHT22;21609;49.298;6.844;2023-04-19T08:14:34;16.70;54.70
35497;DHT22;21609;49.298;6.844;2023-04-19T08:17:00;16.80;54.40
35497;DHT22;21609;49.298;6.844;2023-04-19T08:19:26;16.70;54.40
35497;DHT22;21609;49.298;6.844;2023-04-19T08:21:51;16.80;54.20
35497;DHT22;21609;49.298;6.844;2023-04-19T08:24:17;16.80;54.30
35497;DHT22;21609;49.298;6.844;2023-04-19T08:26:42;16.70;54.10
35497;DHT22;21609;49.298;6.844;2023-04-19T08:29:08;16.80;54.30
35497;DHT22;21609;49.298;6.844;2023-04-19T08:31:33;16.80;54.40
35497;DHT22;21609;49.298;6.844;2023-04-19T08:33:59;16.80;54.20
35497;DHT22;21609;49.298;6.844;2023-04-19T08:36:25;16.80;54.20
35497;DHT22;21609;49.298;6.844;2023-04-19T08:38:52;16.80;54.20
35497;DHT22;21609;49.298;6.844;2023-04-19T08:41:18;16.70;54.30
35497;DHT22;21609;49.298;6.844;2023-04-19T08:43:46;16.80;54.20
35497;DHT22;21609;49.298;6.844;2023-04-19T08:46:13;16.80;54.00
35497;DHT22;21609;49.298;6.844;2023-04-19T08:48:39;16.80;54.00
35497;DHT22;21609;49.298;6.844;2023-04-19T08:51:05;16.80;53.90
35497;DHT22;21609;49.298;6.844;2023-04-19T08:53:33;16.80;54.10
35497;DHT22;21609;49.298;6.844;2023-04-19T08:56:00;16.80;54.00
35497;DHT22;21609;49.298;6.844;2023-04-19T08:58:26;16.80;54.00
35497;DHT22;21609;49.298;6.844;2023-04-19T09:00:55;16.80;54.00
35497;DHT22;21609;49.298;6.844;2023-04-19T09:03:20;16.80;54.10
35497;DHT22;21609;49.298;6.844;2023-04-19T09:05:46;16.80;54.00
35497;DHT22;21609;49.298;6.844;2023-04-19T09:08:28;16.80;53.80
35497;DHT22;21609;49.298;6.844;2023-04-19T09:10:59;16.90;53.90
35497;DHT22;21609;49.298;6.844;2023-04-19T09:13:26;16.90;54.10
35497;DHT22;21609;49.298;6.844;2023-04-19T09:15:52;16.90;53.90
35497;DHT22;21609;49.298;6.844;2023-04-19T09:18:19;16.90;54.00
35497;DHT22;21609;49.298;6.844;2023-04-19T09:20:45;16.90;53.90
35497;DHT22;21609;49.298;6.844;2023-04-19T09:23:17;16.90;53.80
35497;DHT22;21609;49.298;6.844;2023-04-19T09:25:55;16.90;54.00
35497;DHT22;21609;49.298;6.844;2023-04-19T09:28:22;16.90;53.80
35497;DHT22;21609;49.298;6.844;2023-04-19T09:30:48;16.90;53.90
35497;DHT22;21609;49.298;6.844;2023-04-19T09:33:30;16.90;53.70
35497;DHT22;21609;49.298;6.844;2023-04-19T09:35:58;16.90;53.80
35497;DHT22;21609;49.298;6.844;2023-04-19T09:38:23;16.90;53.80
35497;DHT22;21609;49.298;6.844;2023-04-19T09:40:49;17.00;53.90
35497;DHT22;21609;49.298;6.844;2023-04-19T09:43:23;17.00;53.90
35497;DHT22;21609;49.298;6.844;2023-04-19T09:45:50;17.00;53.70
35497;DHT22;21609;49.298;6.844;2023-04-19T09:48:16;17.00;53.70
35497;DHT22;21609;49.298;6.844;2023-04-19T09:50:53;17.00;53.70
35497;DHT22;21609;49.298;6.844;2023-04-19T09:53:19;17.00;53.70
35497;DHT22;21609;49.298;6.844;2023-04-19T09:55:45;17.00;53.60
35497;DHT22;21609;49.298;6.844;2023-04-19T09:58:18;17.00;53.70
35497;DHT22;21609;49.298;6.844;2023-04-19T10:00:45;17.00;53.70
35497;DHT22;21609;49.298;6.844;2023-04-19T10:03:14;17.10;53.80
35497;DHT22;21609;49.298;6.844;2023-04-19T10:05:41;17.10;53.40
35497;DHT22;21609;49.298;6.844;2023-04-19T10:08:08;17.10;53.60
35497;DHT22;21609;49.298;6.844;2023-04-19T10:10:34;17.10;53.60
35497;DHT22;21609;49.298;6.844;2023-04-19T10:13:03;17.10;53.70
35497;DHT22;21609;49.298;6.844;2023-04-19T10:15:31;17.10;53.70
35497;DHT22;21609;49.298;6.844;2023-04-19T10:17:57;17.10;53.60
35497;DHT22;21609;49.298;6.844;2023-04-19T10:20:26;17.10;53.70
35497;DHT22;21609;49.298;6.844;2023-04-19T10:22:54;17.10;54.20
35497;DHT22;21609;49.298;6.844;2023-04-19T10:25:27;17.20;53.70
35497;DHT22;21609;49.298;6.844;2023-04-19T10:27:54;17.10;53.40
35497;DHT22;21609;49.298;6.844;2023-04-19T10:30:20;17.10;53.60
35497;DHT22;21609;49.298;6.844;2023-04-19T10:32:57;17.20;53.50
35497;DHT22;21609;49.298;6.844;2023-04-19T10:35:25;17.10;53.70
35497;DHT22;21609;49.298;6.844;2023-04-19T10:38:10;17.10;53.80
35497;DHT22;21609;49.298;6.844;2023-04-19T10:40:56;17.10;53.60
35497;DHT22;21609;49.298;6.844;2023-04-19T10:43:28;17.10;53.50
35497;DHT22;21609;49.298;6.844;2023-04-19T10:45:57;17.10;53.70
35497;DHT22;21609;49.298;6.844;2023-04-19T10:51:10;17.10;53.90
35497;DHT22;21609;49.298;6.844;2023-04-19T10:59:21;17.20;53.70
35497;DHT22;21609;49.298;6.844;2023-04-19T11:01:52;17.20;53.70
35497;DHT22;21609;49.298;6.844;2023-04-19T11:04:19;17.20;53.70
35497;DHT22;21609;49.298;6.844;2023-04-19T11:09:27;17.20;53.70
35497;DHT22;21609;49.298;6.844;2023-04-19T11:11:57;17.20;53.70
35497;DHT22;21609;49.298;6.844;2023-04-19T11:14:24;17.20;53.50
35497;DHT22;21609;49.298;6.844;2023-04-19T11:16:50;17.30;53.60
35497;DHT22;21609;49.298;6.844;2023-04-19T11:19:16;17.20;53.70
35497;DHT22;21609;49.298;6.844;2023-04-19T11:21:44;17.30;53.60
35497;DHT22;21609;49.298;6.844;2023-04-19T11:24:10;17.30;53.50
35497;DHT22;21609;49.298;6.844;2023-04-19T11:26:36;17.30;53.50
35497;DHT22;21609;49.298;6.844;2023-04-19T11:29:02;17.30;53.50
35497;DHT22;21609;49.298;6.844;2023-04-19T11:31:27;17.30;53.50
35497;DHT22;21609;49.298;6.844;2023-04-19T11:33:53;17.30;53.50
35497;DHT22;21609;49.298;6.844;2023-04-19T11:36:19;17.30;53.50
35497;DHT22;21609;49.298;6.844;2023-04-19T11:38:48;17.30;53.50
35497;DHT22;21609;49.298;6.844;2023-04-19T11:41:13;17.30;53.50
35497;DHT22;21609;49.298;6.844;2023-04-19T11:43:39;17.30;53.50
35497;DHT22;21609;49.298;6.844;2023-04-19T11:46:09;17.30;53.50
35497;DHT22;21609;49.298;6.844;2023-04-19T11:48:36;17.30;53.50
35497;DHT22;21609;49.298;6.844;2023-04-19T11:51:02;17.30;53.50
35497;DHT22;21609;49.298;6.844;2023-04-19T11:53:30;17.40;53.50
35497;DHT22;21609;49.298;6.844;2023-04-19T11:58:44;17.30;53.40
35497;DHT22;21609;49.298;6.844;2023-04-19T12:01:14;17.30;53.40
35497;DHT22;21609;49.298;6.844;2023-04-19T12:03:43;17.40;53.50
35497;DHT22;21609;49.298;6.844;2023-04-19T12:06:11;17.30;53.50
35497;DHT22;21609;49.298;6.844;2023-04-19T12:08:47;17.40;53.50
35497;DHT22;21609;49.298;6.844;2023-04-19T12:11:14;17.40;53.30
35497;DHT22;21609;49.298;6.844;2023-04-19T12:13:40;17.40;53.30
35497;DHT22;21609;49.298;6.844;2023-04-19T12:16:07;17.40;53.30
35497;DHT22;21609;49.298;6.844;2023-04-19T12:18:45;17.40;53.50
35497;DHT22;21609;49.298;6.844;2023-04-19T12:21:26;17.40;53.40
35497;DHT22;21609;49.298;6.844;2023-04-19T12:23:54;17.40;53.30
35497;DHT22;21609;49.298;6.844;2023-04-19T12:26:19;17.40;53.50
35497;DHT22;21609;49.298;6.844;2023-04-19T12:28:45;17.40;53.50
35497;DHT22;21609;49.298;6.844;2023-04-19T12:31:11;17.40;53.40
35497;DHT22;21609;49.298;6.844;2023-04-19T12:33:36;17.40;53.30
35497;DHT22;21609;49.298;6.844;2023-04-19T12:36:02;17.40;53.40
35497;DHT22;21609;49.298;6.844;2023-04-19T12:38:27;17.40;53.40
35497;DHT22;21609;49.298;6.844;2023-04-19T12:40:53;17.50;53.40
35497;DHT22;21609;49.298;6.844;2023-04-19T12:43:19;17.50;53.20
35497;DHT22;21609;49.298;6.844;2023-04-19T12:45:44;17.50;53.30
35497;DHT22;21609;49.298;6.844;2023-04-19T12:48:10;17.50;53.20
35497;DHT22;21609;49.298;6.844;2023-04-19T12:50:35;17.60;53.20
35497;DHT22;21609;49.298;6.844;2023-04-19T12:53:01;17.50;53.20
35497;DHT22;21609;49.298;6.844;2023-04-19T12:55:27;17.50;53.10
35497;DHT22;21609;49.298;6.844;2023-04-19T12:57:52;17.60;53.20
35497;DHT22;21609;49.298;6.844;2023-04-19T13:00:18;17.60;53.20
35497;DHT22;21609;49.298;6.844;2023-04-19T13:02:44;17.60;53.30
35497;DHT22;21609;49.298;6.844;2023-04-19T13:05:10;17.70;53.40
35497;DHT22;21609;49.298;6.844;2023-04-19T13:07:37;17.80;53.30
35497;DHT22;21609;49.298;6.844;2023-04-19T13:10:02;17.80;53.20
35497;DHT22;21609;49.298;6.844;2023-04-19T13:12:28;17.90;53.00
35497;DHT22;21609;49.298;6.844;2023-04-19T13:14:54;17.90;52.90
35497;DHT22;21609;49.298;6.844;2023-04-19T13:17:19;17.90;52.80
35497;DHT22;21609;49.298;6.844;2023-04-19T13:19:45;17.90;52.80
35497;DHT22;21609;49.298;6.844;2023-04-19T13:22:11;17.90;52.90
35497;DHT22;21609;49.298;6.844;2023-04-19T13:24:37;17.90;52.90
35497;DHT22;21609;49.298;6.844;2023-04-19T13:27:02;18.00;52.90
35497;DHT22;21609;49.298;6.844;2023-04-19T13:29:28;18.00;52.90
35497;DHT22;21609;49.298;6.844;2023-04-19T13:31:54;17.90;52.80
35497;DHT22;21609;49.298;6.844;2023-04-19T13:34:20;17.90;52.80
35497;DHT22;21609;49.298;6.844;2023-04-19T13:36:45;17.90;52.90
35497;DHT22;21609;49.298;6.844;2023-04-19T13:39:11;17.90;52.90
35497;DHT22;21609;49.298;6.844;2023-04-19T13:41:37;17.90;53.60
35497;DHT22;21609;49.298;6.844;2023-04-19T13:44:02;17.90;53.00
35497;DHT22;21609;49.298;6.844;2023-04-19T13:46:28;17.90;53.10
35497;DHT22;21609;49.298;6.844;2023-04-19T13:48:53;17.80;53.00
35497;DHT22;21609;49.298;6.844;2023-04-19T13:51:19;17.80;53.10
35497;DHT22;21609;49.298;6.844;2023-04-19T13:53:45;17.80;53.10
35497;DHT22;21609;49.298;6.844;2023-04-19T13:56:10;17.80;53.10
35497;DHT22;21609;49.298;6.844;2023-04-19T13:58:36;17.80;53.10
35497;DHT22;21609;49.298;6.844;2023-04-19T14:01:02;17.80;53.10
35497;DHT22;21609;49.298;6.844;2023-04-19T14:03:28;17.70;53.10
35497;DHT22;21609;49.298;6.844;2023-04-19T14:05:53;17.70;53.20
35497;DHT22;21609;49.298;6.844;2023-04-19T14:08:19;17.70;53.30
35497;DHT22;21609;49.298;6.844;2023-04-19T14:10:45;17.70;53.20
35497;DHT22;21609;49.298;6.844;2023-04-19T14:13:11;17.70;53.30
35497;DHT22;21609;49.298;6.844;2023-04-19T14:15:36;17.70;53.20
35497;DHT22;21609;49.298;6.844;2023-04-19T14:18:02;17.70;53.30
35497;DHT22;21609;49.298;6.844;2023-04-19T14:20:27;17.70;53.40
35497;DHT22;21609;49.298;6.844;2023-04-19T14:22:53;17.70;53.20
35497;DHT22;21609;49.298;6.844;2023-04-19T14:25:23;17.70;53.20
35497;DHT22;21609;49.298;6.844;2023-04-19T14:27:49;17.70;53.10
35497;DHT22;21609;49.298;6.844;2023-04-19T14:30:14;17.70;53.10
35497;DHT22;21609;49.298;6.844;2023-04-19T14:32:40;17.70;53.10
35497;DHT22;21609;49.298;6.844;2023-04-19T14:35:06;17.70;52.90
35497;DHT22;21609;49.298;6.844;2023-04-19T14:37:33;17.70;53.00
35497;DHT22;21609;49.298;6.844;2023-04-19T14:39:58;17.70;52.90
35497;DHT22;21609;49.298;6.844;2023-04-19T14:42:24;17.70;52.90
35497;DHT22;21609;49.298;6.844;2023-04-19T14:44:52;17.70;52.90
35497;DHT22;21609;49.298;6.844;2023-04-19T14:47:18;17.70;52.90
35497;DHT22;21609;49.298;6.844;2023-04-19T14:49:44;17.70;52.80
35497;DHT22;21609;49.298;6.844;2023-04-19T14:52:09;17.70;52.80
35497;DHT22;21609;49.298;6.844;2023-04-19T14:54:35;17.80;52.90
35497;DHT22;21609;49.298;6.844;2023-04-19T14:57:00;17.80;52.80
35497;DHT22;21609;49.298;6.844;2023-04-19T14:59:26;17.80;52.80
35497;DHT22;21609;49.298;6.844;2023-04-19T15:01:52;17.80;52.70
35497;DHT22;21609;49.298;6.844;2023-04-19T15:04:17;17.80;52.70
35497;DHT22;21609;49.298;6.844;2023-04-19T15:06:43;17.80;52.70
35497;DHT22;21609;49.298;6.844;2023-04-19T15:09:08;17.80;52.80
35497;DHT22;21609;49.298;6.844;2023-04-19T15:11:34;17.80;52.80
35497;DHT22;21609;49.298;6.844;2023-04-19T15:14:00;17.90;52.90
35497;DHT22;21609;49.298;6.844;2023-04-19T15:16:26;17.90;52.80
35497;DHT22;21609;49.298;6.844;2023-04-19T15:18:52;17.90;52.70
35497;DHT22;21609;49.298;6.844;2023-04-19T15:21:18;17.90;52.60
35497;DHT22;21609;49.298;6.844;2023-04-19T15:23:44;17.90;52.70
35497;DHT22;21609;49.298;6.844;2023-04-19T15:26:09;17.90;52.80
35497;DHT22;21609;49.298;6.844;2023-04-19T15:28:35;17.90;52.70
35497;DHT22;21609;49.298;6.844;2023-04-19T15:31:03;17.90;52.50
35497;DHT22;21609;49.298;6.844;2023-04-19T15:33:29;17.90;52.60
35497;DHT22;21609;49.298;6.844;2023-04-19T15:35:55;17.90;52.60
35497;DHT22;21609;49.298;6.844;2023-04-19T15:38:22;17.90;52.60